Time;durP1;ratioP1;P1;durP2;ratioP2;P2;SDS_P1;SDS_P2;PMS_P1;PMS_P2;Temp;Humidity;BMP_temperature;BMP_pressure;BME280_temperature;BME280_humidity;BME280_pressure;Samples;Min_cycle;Max_cycle;Signal;HPM_P1;HPM_P2
2022/01/21 00:03:54;;;;;;;25.75;9.32;;;;;;;-2.48;96.06;103190.03;10462228;28;20029;-77
2022/01/21 00:08:55;;;;;;;26.75;9.35;;;;;;;-2.44;95.35;103194.84;10486542;28;20484;-78
2022/01/21 00:13:55;;;;;;;22.48;7.05;;;;;;;-2.31;95.53;103191.41;10502243;28;20028;-77
2022/01/21 00:19:09;;;;;;;26.83;9.53;;;;;;;-2.40;95.78;103186.88;10464124;28;20028;-77
2022/01/21 00:34:47;;;;;;;35.47;9.45;;;;;;;-2.19;95.84;103194.75;10500287;28;20028;-78
2022/01/21 00:39:54;;;;;;;24.98;10.48;;;;;;;-2.03;95.25;103187.47;10481907;28;20482;-78
2022/01/21 00:44:59;;;;;;;20.50;7.25;;;;;;;-2.00;95.71;103200.72;10499275;28;20127;-78
2022/01/21 00:49:59;;;;;;;21.77;8.82;;;;;;;-1.96;95.40;103191.09;10483428;28;20028;-78
2022/01/21 00:55:00;;;;;;;29.08;9.00;;;;;;;-1.85;94.90;103200.22;10482726;28;20053;-78
2022/01/21 01:00:00;;;;;;;26.65;8.15;;;;;;;-1.66;94.86;103201.06;10481454;28;20067;-78
2022/01/21 01:05:01;;;;;;;18.73;6.07;;;;;;;-1.64;94.93;103198.69;10499468;28;20036;-78
2022/01/21 01:10:04;;;;;;;19.30;6.60;;;;;;;-1.66;95.37;103200.13;10500630;28;20052;-78
2022/01/21 01:20:25;;;;;;;23.45;6.22;;;;;;;-1.57;94.94;103193.66;10497691;28;20037;-78
2022/01/21 01:30:44;;;;;;;54.20;11.02;;;;;;;-1.72;94.52;103179.72;10498706;28;20396;-78
2022/01/21 01:35:45;;;;;;;22.48;7.60;;;;;;;-1.91;94.28;103186.56;10480949;28;20032;-78
2022/01/21 01:40:56;;;;;;;20.27;7.55;;;;;;;-2.14;94.81;103179.22;10496559;28;20492;-78
2022/01/21 01:51:16;;;;;;;23.70;8.65;;;;;;;-2.58;94.52;103198.09;10495984;28;20047;-78
2022/01/21 01:56:20;;;;;;;25.63;8.65;;;;;;;-2.70;94.73;103199.88;10480096;28;20040;-78
2022/01/21 02:01:21;;;;;;;20.67;8.15;;;;;;;-2.82;94.23;103194.00;10479145;28;20478;-78
2022/01/21 02:06:21;;;;;;;24.00;8.07;;;;;;;-2.88;94.75;103181.94;10471622;28;20029;-78
2022/01/21 02:11:22;;;;;;;29.70;7.33;;;;;;;-2.87;94.94;103188.94;10491089;28;20020;-78
2022/01/21 02:21:40;;;;;;;22.40;8.60;;;;;;;-3.06;94.54;103201.75;10496245;28;20073;-77
2022/01/21 02:26:41;;;;;;;33.45;8.10;;;;;;;-2.96;94.65;103196.28;10464992;28;20032;-78
2022/01/21 02:31:42;;;;;;;23.70;9.63;;;;;;;-3.05;94.79;103187.31;10472883;28;20043;-78
2022/01/21 02:36:42;;;;;;;26.00;8.80;;;;;;;-3.20;94.54;103188.63;10452931;28;20103;-78
2022/01/21 02:41:43;;;;;;;27.17;9.37;;;;;;;-3.25;95.06;103199.16;10477990;28;20046;-77
2022/01/21 02:46:44;;;;;;;23.90;6.80;;;;;;;-3.30;94.87;103194.13;10478488;28;20041;-77
2022/01/21 02:51:45;;;;;;;22.60;8.88;;;;;;;-3.27;94.78;103195.44;10516406;28;20111;-77
2022/01/21 02:56:45;;;;;;;23.00;10.50;;;;;;;-3.27;95.12;103205.69;10459310;28;20025;-77
2022/01/21 03:01:46;;;;;;;17.33;9.03;;;;;;;-3.30;95.34;103207.81;10477548;28;20035;-77
2022/01/21 03:06:47;;;;;;;28.00;9.60;;;;;;;-3.29;95.71;103213.91;10459622;28;20068;-77
2022/01/21 03:11:47;;;;;;;18.73;7.77;;;;;;;-3.35;95.53;103213.94;10468404;28;20029;-77
2022/01/21 03:16:48;;;;;;;28.63;10.77;;;;;;;-3.32;95.46;103208.34;10462447;28;20108;-77
2022/01/21 03:21:48;;;;;;;32.70;10.97;;;;;;;-3.35;95.35;103216.50;10491615;28;20480;-77
2022/01/21 03:26:49;;;;;;;27.67;10.27;;;;;;;-3.32;95.46;103218.59;10493752;28;20454;-77
2022/01/21 03:31:49;;;;;;;25.07;9.60;;;;;;;-3.19;95.14;103205.84;10484571;28;20029;-77
2022/01/21 03:36:50;;;;;;;18.70;9.23;;;;;;;-3.14;95.39;103215.09;10463900;28;20075;-77
2022/01/21 03:41:50;;;;;;;24.83;9.63;;;;;;;-3.25;95.49;103211.06;10464415;28;20068;-77
2022/01/21 03:46:51;;;;;;;21.10;8.27;;;;;;;-3.22;95.22;103226.84;10493887;28;20388;-77
2022/01/21 03:51:51;;;;;;;30.03;13.40;;;;;;;-3.14;95.46;103208.38;10476084;28;20056;-77
2022/01/21 03:56:52;;;;;;;14.23;5.77;;;;;;;-3.10;95.76;103207.16;10459233;28;20063;-77
2022/01/21 04:01:52;;;;;;;24.73;7.70;;;;;;;-3.12;95.63;103219.75;10462255;28;20090;-78
2022/01/21 04:06:53;;;;;;;19.93;7.20;;;;;;;-3.12;96.08;103232.56;10465990;28;20033;-77
2022/01/21 04:11:53;;;;;;;22.63;10.97;;;;;;;-3.13;95.56;103225.59;10463977;28;20071;-78
2022/01/21 04:16:53;;;;;;;21.43;7.10;;;;;;;-3.12;95.91;103222.31;10465741;28;20480;-77
2022/01/21 04:21:54;;;;;;;18.95;8.13;;;;;;;-3.07;95.44;103216.91;10493770;28;20053;-78
2022/01/21 04:26:54;;;;;;;24.63;8.10;;;;;;;-3.06;95.58;103204.28;10475801;28;20071;-76
2022/01/21 04:31:55;;;;;;;14.20;6.03;;;;;;;-3.18;95.82;103200.03;10463281;28;20028;-77
2022/01/21 04:36:55;;;;;;;22.70;8.60;;;;;;;-3.28;96.02;103203.84;10529428;28;20051;-78
2022/01/21 04:47:18;;;;;;;36.47;10.48;;;;;;;-3.22;95.21;103197.75;10459589;28;20033;-76
2022/01/21 04:52:19;;;;;;;31.02;12.35;;;;;;;-3.33;95.48;103209.06;10474884;28;20546;-78
2022/01/21 04:57:20;;;;;;;22.23;8.27;;;;;;;-3.47;95.91;103218.28;10470133;28;20082;-78
2022/01/21 05:02:21;;;;;;;27.60;12.53;;;;;;;-3.54;95.75;103212.97;10487430;28;20119;-75
2022/01/21 05:07:25;;;;;;;22.55;10.00;;;;;;;-3.64;95.20;103226.09;10486545;28;20040;-78
2022/01/21 05:12:27;;;;;;;20.00;9.77;;;;;;;-3.80;95.58;103219.50;10460948;28;20049;-75
2022/01/21 05:17:29;;;;;;;25.35;10.00;;;;;;;-3.85;95.10;103212.09;10483786;28;20464;-75
2022/01/21 05:22:29;;;;;;;31.23;9.80;;;;;;;-3.87;95.56;103208.38;10478502;28;20033;-77
2022/01/21 05:27:30;;;;;;;21.50;8.87;;;;;;;-3.92;95.55;103217.03;10453096;28;20060;-78
2022/01/21 05:32:30;;;;;;;27.67;9.63;;;;;;;-3.97;95.59;103215.44;10469607;28;20033;-77
2022/01/21 05:37:31;;;;;;;22.80;12.83;;;;;;;-3.91;95.84;103217.97;10493703;28;20064;-78
2022/01/21 05:42:34;;;;;;;28.70;13.57;;;;;;;-3.92;95.75;103222.16;10493014;28;20559;-78
2022/01/21 05:47:35;;;;;;;32.03;12.00;;;;;;;-3.97;95.12;103227.31;10467933;28;20055;-76
2022/01/21 05:52:41;;;;;;;23.25;12.25;;;;;;;-3.95;95.66;103231.03;10476081;28;20041;-77
2022/01/21 05:57:42;;;;;;;26.67;13.75;;;;;;;-3.97;95.51;103235.91;10464990;28;20476;-78
2022/01/21 06:02:42;;;;;;;26.67;12.60;;;;;;;-3.99;95.98;103230.59;10478671;28;20047;-79
2022/01/21 06:07:43;;;;;;;26.63;10.63;;;;;;;-4.00;95.46;103222.69;10460021;28;20063;-77
2022/01/21 06:12:43;;;;;;;29.50;13.90;;;;;;;-3.94;95.85;103226.13;10463517;28;20163;-77
2022/01/21 06:17:44;;;;;;;30.60;14.87;;;;;;;-3.92;95.75;103241.72;10475224;28;20056;-77
2022/01/21 06:22:45;;;;;;;33.63;18.73;;;;;;;-3.81;96.32;103240.66;10438981;28;20077;-79
2022/01/21 06:27:45;;;;;;;37.40;17.90;;;;;;;-3.86;96.29;103258.84;10484348;28;20095;-78
2022/01/21 06:32:46;;;;;;;20.90;13.20;;;;;;;-3.97;95.80;103264.06;10482156;28;20145;-78
2022/01/21 06:37:46;;;;;;;23.23;13.60;;;;;;;-4.06;95.70;103263.66;10479313;28;20056;-78
2022/01/21 06:42:48;;;;;;;41.07;20.73;;;;;;;-4.00;95.91;103264.56;10481569;28;20099;-78
2022/01/21 06:47:48;;;;;;;36.53;20.63;;;;;;;-4.11;95.49;103269.75;10487247;28;20032;-78
2022/01/21 06:52:49;;;;;;;38.50;21.07;;;;;;;-4.11;95.92;103279.03;10492093;28;20064;-78
2022/01/21 06:57:49;;;;;;;45.33;22.43;;;;;;;-4.09;95.91;103286.25;10476517;28;20108;-78
2022/01/21 07:02:51;;;;;;;40.27;25.07;;;;;;;-4.11;96.06;103304.63;10477186;28;20132;-78
2022/01/21 07:07:52;;;;;;;;;;;;;;;-4.11;95.82;103305.56;10485377;28;20116;-78
2022/01/21 07:12:52;;;;;;;41.13;21.73;;;;;;;-4.02;95.63;103295.72;10480068;28;20351;-78
2022/01/21 07:17:53;;;;;;;53.13;25.30;;;;;;;-3.88;96.24;103302.84;10474320;28;20090;-77
2022/01/21 07:22:53;;;;;;;46.17;27.03;;;;;;;-3.90;96.02;103294.03;10479672;28;20059;-78
2022/01/21 07:27:54;;;;;;;49.13;27.23;;;;;;;-3.87;96.15;103281.69;10487792;28;20483;-78
2022/01/21 07:32:54;;;;;;;60.70;29.77;;;;;;;-3.66;95.98;103285.47;10475938;28;20029;-77
2022/01/21 07:37:55;;;;;;;43.07;26.37;;;;;;;-3.55;95.75;103293.97;10478230;28;20033;-77
2022/01/21 07:42:55;;;;;;;62.40;32.47;;;;;;;-3.36;96.35;103296.59;10467873;28;20079;-79
2022/01/21 07:47:56;;;;;;;56.83;33.47;;;;;;;-3.26;96.33;103314.22;10465876;28;20037;-78
2022/01/21 07:52:57;;;;;;;63.93;34.67;;;;;;;-3.18;96.40;103322.97;10491784;28;20060;-80
2022/01/21 07:57:57;;;;;;;61.17;35.27;;;;;;;-3.05;95.94;103330.78;10498870;28;20047;-79
2022/01/21 08:02:58;;;;;;;59.40;31.40;;;;;;;-3.08;96.81;103330.34;10498964;28;20509;-78
2022/01/21 08:07:58;;;;;;;74.70;38.72;;;;;;;-2.94;96.09;103315.31;10530106;28;20043;-79
2022/01/21 08:13:00;;;;;;;61.53;35.13;;;;;;;-2.98;95.98;103313.03;10493023;28;20407;-80
2022/01/21 08:18:01;;;;;;;74.70;37.92;;;;;;;-2.98;96.42;103316.50;10488212;28;20051;-79
2022/01/21 08:23:01;;;;;;;36.47;23.50;;;;;;;-2.77;96.16;103302.28;10479582;28;20118;-79
2022/01/21 08:28:02;;;;;;;64.07;37.03;;;;;;;-2.71;96.80;103292.88;10495891;28;20056;-78
2022/01/21 08:33:03;;;;;;;66.57;38.30;;;;;;;-2.70;96.56;103299.88;10499490;28;20036;-80
2022/01/21 08:38:04;;;;;;;64.23;36.40;;;;;;;-2.64;96.31;103304.00;10468404;28;20052;-79
2022/01/21 08:43:04;;;;;;;54.00;34.43;;;;;;;-2.55;96.04;103308.78;10465376;28;20080;-79
2022/01/21 08:48:05;;;;;;;64.50;38.77;;;;;;;-2.38;96.37;103285.47;10464889;28;20460;-78
2022/01/21 08:58:25;;;;;;;63.45;39.08;;;;;;;-1.99;96.12;103302.66;10463253;28;20029;-78
2022/01/21 09:03:25;;;;;;;76.47;42.83;;;;;;;-1.84;96.45;103307.34;10442222;28;20468;-78
2022/01/21 09:08:29;;;;;;;118.90;71.45;;;;;;;-1.56;96.03;103303.38;10489627;28;20070;-79
2022/01/21 09:13:31;;;;;;;71.32;38.80;;;;;;;-1.21;96.82;103308.88;10483179;28;20031;-79
2022/01/21 09:18:55;;;;;;;70.65;41.00;;;;;;;-0.91;96.99;103309.47;10485333;28;20492;-79
2022/01/21 09:23:55;;;;;;;66.05;39.33;;;;;;;-0.69;96.61;103299.47;10486742;28;20029;-80
2022/01/21 09:28:57;;;;;;;65.22;35.92;;;;;;;-0.51;96.91;103308.69;10509719;28;20028;-80
2022/01/21 09:33:57;;;;;;;56.90;38.08;;;;;;;-0.01;96.80;103308.28;10461787;28;20119;-80
2022/01/21 09:38:58;;;;;;;152.38;86.03;;;;;;;-0.01;96.48;103304.78;10444368;28;20052;-79
2022/01/21 09:44:00;;;;;;;65.60;37.05;;;;;;;0.11;96.64;103319.25;10502751;28;20496;-78
2022/01/21 09:49:25;;;;;;;55.50;36.50;;;;;;;0.42;96.69;103315.47;10488303;28;20479;-79
2022/01/21 09:54:30;;;;;;;52.90;34.97;;;;;;;1.29;96.41;103317.63;10482404;28;20020;-79
2022/01/21 09:59:32;;;;;;;42.95;27.70;;;;;;;1.58;96.35;103321.25;10496997;28;20025;-79
2022/01/21 10:04:38;;;;;;;39.13;24.83;;;;;;;2.80;95.28;103323.72;10493800;28;20589;-79
2022/01/21 10:09:39;;;;;;;15.93;11.18;;;;;;;6.66;79.17;103314.91;10477478;28;20120;-79
2022/01/21 10:14:40;;;;;;;14.75;7.57;;;;;;;9.36;61.86;103321.00;10493707;28;20112;-78
2022/01/21 10:19:41;;;;;;;15.95;4.30;;;;;;;10.60;56.33;103322.31;10494969;28;20377;-78
2022/01/21 10:24:52;;;;;;;9.45;4.25;;;;;;;11.11;55.36;103318.81;10492806;28;20028;-78
2022/01/21 10:29:52;;;;;;;8.38;5.00;;;;;;;8.21;60.81;103335.44;10494422;28;20033;-79
2022/01/21 10:34:53;;;;;;;9.88;5.85;;;;;;;5.53;68.33;103335.22;10493486;28;20047;-78
2022/01/21 10:40:08;;;;;;;9.15;5.50;;;;;;;4.09;73.79;103336.84;10528872;28;20036;-78
2022/01/21 10:45:09;;;;;;;11.27;5.18;;;;;;;3.48;77.79;103347.16;10489577;28;20095;-78
2022/01/21 10:50:20;;;;;;;13.82;5.47;;;;;;;3.26;79.23;103345.41;10475009;28;20388;-78
2022/01/21 10:55:32;;;;;;;16.13;7.38;;;;;;;3.78;78.96;103338.50;10500550;28;20059;-76
2022/01/21 11:00:33;;;;;;;12.23;5.55;;;;;;;3.91;77.98;103339.91;10493528;28;20069;-77
2022/01/21 11:05:39;;;;;;;22.05;6.60;;;;;;;3.58;78.97;103336.22;10490190;28;20040;-79
2022/01/21 11:10:46;;;;;;;14.32;6.13;;;;;;;3.19;79.95;103331.75;10482545;28;20035;-78
2022/01/21 11:16:11;;;;;;;10.32;6.07;;;;;;;3.39;80.66;103327.97;10473511;28;20106;-77
2022/01/21 11:21:11;;;;;;;11.88;5.97;;;;;;;3.62;80.45;103319.34;10494646;28;20040;-78
2022/01/21 11:26:14;;;;;;;16.40;7.85;;;;;;;3.94;78.42;103306.56;10500441;28;20452;-76
2022/01/21 11:31:17;;;;;;;11.05;6.55;;;;;;;5.36;76.75;103281.44;10499447;28;20400;-78
2022/01/21 11:36:18;;;;;;;9.05;5.25;;;;;;;5.90;72.40;103276.78;10494088;28;20039;-79
2022/01/21 11:41:19;;;;;;;11.63;5.43;;;;;;;5.48;72.61;103263.66;10492797;28;20049;-79
2022/01/21 11:51:46;;;;;;;13.82;5.72;;;;;;;8.25;64.84;103246.28;10485439;28;20032;-80
2022/01/21 11:56:57;;;;;;;12.65;4.72;;;;;;;7.38;66.75;103242.22;10503028;28;20056;-80
2022/01/21 12:01:58;;;;;;;9.23;4.63;;;;;;;7.76;66.86;103235.56;10501626;28;20029;-80
2022/01/21 12:06:59;;;;;;;10.52;4.43;;;;;;;8.65;64.52;103239.63;10501808;28;20041;-80
2022/01/21 12:12:00;;;;;;;10.40;4.57;;;;;;;8.25;64.72;103238.44;10500889;28;20112;-80
2022/01/21 12:17:14;;;;;;;16.17;6.80;;;;;;;7.40;67.93;103245.88;10458772;28;20036;-80
2022/01/21 12:22:17;;;;;;;9.75;5.65;;;;;;;5.70;71.95;103247.00;10483447;28;20052;-79
2022/01/21 12:27:18;;;;;;;18.95;7.13;;;;;;;4.77;75.09;103246.56;10498538;28;20415;-79
2022/01/21 12:32:30;;;;;;;18.85;5.15;;;;;;;4.51;77.44;103242.97;10473361;28;20025;-80
2022/01/21 12:37:53;;;;;;;10.83;5.63;;;;;;;4.55;78.65;103233.81;10484070;28;20028;-80
2022/01/21 12:42:53;;;;;;;10.00;5.40;;;;;;;4.72;78.69;103224.38;10498997;28;20496;-79
2022/01/21 12:47:55;;;;;;;12.05;6.05;;;;;;;4.75;78.51;103220.47;10499857;28;20060;-78
2022/01/21 12:53:14;;;;;;;9.88;6.32;;;;;;;4.78;78.41;103222.47;10498148;28;20045;-78
2022/01/21 12:58:16;;;;;;;13.65;4.82;;;;;;;5.17;78.94;103229.22;10496907;28;20081;-76
2022/01/21 13:03:34;;;;;;;9.75;5.85;;;;;;;5.34;77.28;103221.56;10479777;28;20028;-77
2022/01/21 13:08:43;;;;;;;22.63;8.13;;;;;;;5.24;76.82;103221.34;10496105;28;20166;-76
2022/01/21 13:13:53;;;;;;;14.30;6.88;;;;;;;5.00;77.58;103228.31;10478031;28;20047;-78
2022/01/21 13:19:01;;;;;;;18.50;8.05;;;;;;;4.78;77.91;103220.78;10496228;28;20043;-78
2022/01/21 13:24:15;;;;;;;11.95;5.95;;;;;;;4.34;81.31;103220.34;10487175;28;20083;-78
2022/01/21 13:29:15;;;;;;;14.75;5.60;;;;;;;4.46;81.66;103209.47;10474992;28;20033;-78
2022/01/21 13:34:19;;;;;;;15.05;5.45;;;;;;;4.46;81.13;103213.00;10456928;28;20505;-79
2022/01/21 13:39:21;;;;;;;18.30;6.35;;;;;;;4.33;81.54;103199.44;10438763;28;20517;-79
2022/01/21 13:44:25;;;;;;;14.07;6.32;;;;;;;4.15;81.53;103207.03;10457865;28;20045;-79
2022/01/21 13:49:26;;;;;;;11.93;5.63;;;;;;;4.05;82.04;103196.38;10485155;28;20396;-78
2022/01/21 13:54:36;;;;;;;13.25;4.13;;;;;;;4.10;82.46;103201.31;10472777;28;20120;-78
2022/01/21 13:59:44;;;;;;;22.92;5.63;;;;;;;4.10;82.20;103195.22;10497670;28;20041;-78
2022/01/21 14:04:58;;;;;;;12.68;5.20;;;;;;;4.16;81.97;103200.16;10495291;28;20086;-78
2022/01/21 14:10:02;;;;;;;23.00;5.30;;;;;;;4.18;82.50;103203.81;10479983;28;20463;-79
2022/01/21 14:15:03;;;;;;;13.48;4.50;;;;;;;4.28;82.54;103191.13;10493740;28;20032;-78
2022/01/21 14:20:06;;;;;;;10.75;4.47;;;;;;;4.38;81.82;103190.50;10471757;28;20094;-79
2022/01/21 14:25:09;;;;;;;15.43;5.70;;;;;;;4.22;82.52;103180.09;10485911;28;20032;-80
2022/01/21 14:30:12;;;;;;;16.25;4.72;;;;;;;4.12;83.53;103183.34;10490835;28;20028;-80
2022/01/21 14:35:18;;;;;;;18.70;8.18;;;;;;;4.10;82.95;103177.06;10484363;28;20052;-80
2022/01/21 14:40:27;;;;;;;15.10;4.47;;;;;;;4.23;82.99;103179.34;10494198;28;20875;-79
2022/01/21 14:45:31;;;;;;;11.65;5.97;;;;;;;4.29;83.33;103174.84;10504205;28;20036;-79
2022/01/21 14:50:31;;;;;;;16.73;5.32;;;;;;;4.31;83.36;103180.19;10477229;28;20085;-79
2022/01/21 14:55:33;;;;;;;11.55;4.63;;;;;;;4.32;82.83;103180.34;10515686;28;20059;-79
2022/01/21 15:00:37;;;;;;;9.18;4.97;;;;;;;4.13;83.42;103173.88;10504714;28;20028;-79
2022/01/21 15:05:40;;;;;;;9.77;5.43;;;;;;;3.97;84.85;103178.31;10459265;28;20119;-77
2022/01/21 15:10:43;;;;;;;10.75;5.75;;;;;;;3.91;84.89;103187.03;10497324;28;20557;-79
2022/01/21 15:15:46;;;;;;;10.80;5.57;;;;;;;3.91;84.85;103181.88;10459966;28;20040;-79
2022/01/21 15:20:47;;;;;;;20.23;7.90;;;;;;;3.81;85.13;103175.66;10486128;28;20032;-79
2022/01/21 15:25:48;;;;;;;8.10;4.23;;;;;;;3.80;84.99;103175.50;10512011;28;20031;-79
2022/01/21 15:30:48;;;;;;;11.95;5.50;;;;;;;3.69;85.90;103176.88;10499760;28;20449;-79
2022/01/21 15:35:49;;;;;;;8.93;4.70;;;;;;;3.66;86.10;103172.28;10497618;28;20105;-79
2022/01/21 15:40:53;;;;;;;12.85;5.38;;;;;;;3.61;86.77;103164.72;10471524;28;20116;-78
2022/01/21 15:45:53;;;;;;;11.90;5.95;;;;;;;3.53;86.83;103169.94;10491906;28;20499;-81
2022/01/21 15:50:54;;;;;;;12.38;5.07;;;;;;;3.51;87.05;103161.09;10475053;28;20096;-79
2022/01/21 15:55:54;;;;;;;12.63;5.57;;;;;;;3.47;87.72;103161.50;10491942;28;20540;-78
2022/01/21 16:00:55;;;;;;;16.98;6.15;;;;;;;3.41;87.26;103165.97;10470916;28;20034;-78
2022/01/21 16:05:55;;;;;;;15.75;6.05;;;;;;;3.39;87.48;103167.47;10511982;28;20510;-78
2022/01/21 16:10:58;;;;;;;12.05;5.97;;;;;;;3.41;87.52;103178.00;10513894;28;20115;-78
2022/01/21 16:15:59;;;;;;;15.55;5.53;;;;;;;3.46;87.34;103182.94;10470812;28;20032;-78
2022/01/21 16:21:01;;;;;;;33.13;5.35;;;;;;;3.44;87.77;103168.00;10493999;28;20022;-78
2022/01/21 16:26:03;;;;;;;24.37;6.07;;;;;;;3.39;87.75;103175.22;10492647;28;20082;-77
2022/01/21 16:31:04;;;;;;;17.15;6.13;;;;;;;3.37;88.22;103184.50;10483231;28;20286;-78
2022/01/21 16:36:04;;;;;;;14.32;6.40;;;;;;;3.37;88.75;103180.25;10503151;28;20107;-78
2022/01/21 16:41:05;;;;;;;18.40;6.50;;;;;;;3.35;88.39;103184.34;10475839;28;20053;-77
2022/01/21 16:46:06;;;;;;;17.08;6.20;;;;;;;3.38;87.92;103170.81;10480102;28;20040;-78
2022/01/21 16:51:06;;;;;;;12.95;6.72;;;;;;;3.30;88.16;103169.00;10496830;28;20109;-77
2022/01/21 16:56:07;;;;;;;13.00;6.35;;;;;;;3.25;88.19;103178.84;10493178;28;20029;-76
2022/01/21 17:01:10;;;;;;;21.58;7.68;;;;;;;3.23;88.85;103183.84;10512222;28;20047;-77
2022/01/21 17:06:11;;;;;;;11.98;6.18;;;;;;;3.22;88.81;103170.72;10509093;28;20035;-78
2022/01/21 17:11:16;;;;;;;20.85;6.45;;;;;;;3.21;88.44;103181.84;10495036;28;20499;-77
2022/01/21 17:16:19;;;;;;;16.45;6.82;;;;;;;3.14;88.43;103179.28;10507195;28;20027;-77
2022/01/21 17:21:20;;;;;;;12.23;6.53;;;;;;;3.13;88.58;103180.94;10466394;28;20035;-77
2022/01/21 17:26:20;;;;;;;22.83;13.40;;;;;;;3.15;88.88;103176.84;10485810;28;20029;-75
2022/01/21 17:31:21;;;;;;;22.20;10.52;;;;;;;3.14;88.67;103179.28;10476371;28;20056;-75
2022/01/21 17:36:21;;;;;;;13.95;6.35;;;;;;;3.10;88.59;103180.59;10494265;28;20028;-76
2022/01/21 17:41:22;;;;;;;16.63;7.53;;;;;;;3.11;88.35;103177.25;10523483;28;20067;-77
2022/01/21 17:46:23;;;;;;;24.02;8.88;;;;;;;3.07;88.05;103188.00;10523460;28;20044;-78
2022/01/21 17:51:24;;;;;;;14.27;6.90;;;;;;;3.00;88.17;103190.63;10491894;28;20052;-77
2022/01/21 17:56:26;;;;;;;21.05;7.43;;;;;;;2.99;88.36;103191.34;10470301;28;20051;-78
2022/01/21 18:01:30;;;;;;;16.85;7.00;;;;;;;2.98;88.10;103193.03;10487357;28;20037;-78
2022/01/21 18:06:30;;;;;;;15.18;6.25;;;;;;;2.96;88.30;103188.41;10488067;28;20480;-77
2022/01/21 18:11:31;;;;;;;27.60;7.57;;;;;;;2.92;88.89;103197.50;10466308;28;20035;-76
2022/01/21 18:16:32;;;;;;;22.27;8.55;;;;;;;2.88;89.42;103201.38;10488226;28;20058;-77
2022/01/21 18:21:33;;;;;;;30.27;11.02;;;;;;;2.84;89.66;103203.47;10468891;28;20028;-77
2022/01/21 18:26:33;;;;;;;17.02;9.30;;;;;;;2.84;89.99;103208.63;10476750;28;20468;-77
2022/01/21 18:31:34;;;;;;;20.65;9.50;;;;;;;2.84;90.18;103214.72;10473723;28;20493;-76
2022/01/21 18:36:34;;;;;;;25.08;9.80;;;;;;;2.83;89.78;103209.38;10487025;28;20497;-76
2022/01/21 18:41:35;;;;;;;23.50;10.60;;;;;;;2.82;90.05;103205.84;10520586;28;20048;-77
2022/01/21 18:46:37;;;;;;;28.08;10.27;;;;;;;2.84;90.02;103200.88;10498075;28;20556;-77
2022/01/21 18:51:38;;;;;;;20.73;9.20;;;;;;;2.84;89.43;103208.63;10493895;28;20476;-75
2022/01/21 18:56:42;;;;;;;28.10;8.88;;;;;;;2.80;89.42;103207.34;10490336;28;20119;-79
2022/01/21 19:01:43;;;;;;;22.13;7.30;;;;;;;2.75;89.32;103217.16;10490885;28;20043;-79
2022/01/21 19:06:44;;;;;;;16.40;6.38;;;;;;;2.73;89.21;103220.28;10495887;28;20146;-79
2022/01/21 19:11:45;;;;;;;18.80;4.97;;;;;;;2.69;88.96;103210.31;10485453;28;20040;-80
2022/01/21 19:16:45;;;;;;;28.63;7.80;;;;;;;2.61;87.65;103223.28;10490164;28;20115;-80
2022/01/21 19:21:51;;;;;;;20.58;7.40;;;;;;;2.57;88.19;103215.00;10490999;28;20024;-79
2022/01/21 19:31:58;;;;;;;17.23;4.35;;;;;;;2.61;87.72;103219.78;10506493;28;20031;-80
2022/01/21 19:36:59;;;;;;;11.25;3.83;;;;;;;2.64;87.27;103217.56;10492502;28;20548;-81
2022/01/21 19:41:59;;;;;;;18.30;6.70;;;;;;;2.61;87.38;103210.34;10465090;28;20056;-78
2022/01/21 19:47:02;;;;;;;12.60;4.72;;;;;;;2.53;86.93;103212.78;10497530;28;20522;-78
2022/01/21 19:52:04;;;;;;;18.98;6.32;;;;;;;2.42;87.25;103220.19;10509972;28;20031;-77
2022/01/21 19:57:25;;;;;;;11.32;4.10;;;;;;;2.46;87.24;103234.38;10501274;28;20468;-80
2022/01/21 20:05:51;;;;;;;11.82;5.75;;;;;;;2.52;86.48;103239.38;10503302;28;20028;-79
2022/01/21 20:08:33;;;;;;;15.82;4.57;;;;;;;2.49;86.24;103238.28;10498922;28;20048;-77
2022/01/21 20:13:18;;;;;;;24.55;6.60;;;;;;;2.51;86.36;103233.28;10503086;28;20472;-78
2022/01/21 20:18:22;;;;;;;13.25;4.63;;;;;;;2.51;85.89;103232.38;10525555;28;20368;-76
2022/01/21 20:23:22;;;;;;;12.02;4.88;;;;;;;2.48;86.47;103244.19;10486178;28;20535;-77
2022/01/21 20:28:23;;;;;;;9.55;4.30;;;;;;;2.47;86.46;103246.56;10490910;28;20099;-78
2022/01/21 20:33:24;;;;;;;16.60;4.78;;;;;;;2.50;86.33;103254.69;10467467;28;20044;-77
2022/01/21 20:38:27;;;;;;;8.57;3.90;;;;;;;2.46;86.31;103250.84;10480083;28;20021;-77
2022/01/21 20:43:27;;;;;;;;;;;;;;;2.50;86.28;103249.53;10462044;28;20124;-77
2022/01/21 20:48:31;;;;;;;20.83;7.57;;;;;;;2.49;86.21;103255.44;10480199;28;20003;-77
2022/01/21 20:53:32;;;;;;;19.60;5.00;;;;;;;2.48;86.14;103232.91;10464642;28;20094;-78
2022/01/21 20:58:36;;;;;;;18.08;4.43;;;;;;;2.49;86.24;103239.94;10460139;28;20078;-77
2022/01/21 21:03:36;;;;;;;16.67;6.13;;;;;;;2.48;86.02;103236.44;10466061;28;20075;-78
2022/01/21 21:08:41;;;;;;;12.30;3.75;;;;;;;2.46;86.31;103230.16;10487829;28;20540;-77
2022/01/21 21:13:49;;;;;;;11.45;5.47;;;;;;;2.45;86.68;103229.97;10483871;28;20032;-77
2022/01/21 21:24:34;;;;;;;16.85;7.00;;;;;;;2.46;87.38;103226.63;10474906;28;20373;-76
2022/01/21 21:29:47;;;;;;;13.98;5.63;;;;;;;2.37;87.39;103233.31;10477615;28;20036;-76
2022/01/21 23:04:26;;;;;;;21.30;11.82;;;;;;;2.22;87.39;103227.25;10509609;28;20024;-76
2022/01/21 23:09:27;;;;;;;20.00;12.93;;;;;;;2.19;87.96;103214.88;10487665;28;20119;-76
2022/01/21 23:14:27;;;;;;;23.77;11.45;;;;;;;2.20;88.00;103215.06;10497174;28;20021;-77
2022/01/21 23:19:28;;;;;;;21.02;12.23;;;;;;;2.24;87.62;103212.84;10486565;28;20123;-77
2022/01/21 23:24:28;;;;;;;26.70;13.60;;;;;;;2.23;87.48;103204.16;10504135;28;20064;-76
2022/01/21 23:29:29;;;;;;;22.85;12.80;;;;;;;2.24;87.04;103202.50;10503388;28;20540;-76
2022/01/21 23:34:38;;;;;;;21.42;12.40;;;;;;;2.22;87.13;103199.72;10501695;28;20135;-76
2022/01/21 23:39:49;;;;;;;25.55;13.93;;;;;;;2.19;86.82;103189.03;10502034;28;20052;-76
2022/01/21 23:44:50;;;;;;;24.10;13.50;;;;;;;2.23;87.27;103186.06;10496450;28;20143;-76
2022/01/21 23:49:59;;;;;;;26.13;13.25;;;;;;;2.22;86.69;103183.31;10501651;28;20127;-76
2022/01/21 23:54:59;;;;;;;22.67;12.82;;;;;;;2.18;86.49;103180.38;10502419;28;20035;-77
